sensor_id;sensor_type;location;lat;lon;timestamp;P1;durP1;ratioP1;P2;durP2;ratioP2
11887;SDS011;6003;42.756;23.130;2022-08-19T00:01:56;2.70;;;2.53;;
11887;SDS011;6003;42.756;23.130;2022-08-19T00:04:24;2.87;;;2.67;;
11887;SDS011;6003;42.756;23.130;2022-08-19T00:06:55;2.60;;;2.50;;
11887;SDS011;6003;42.756;23.130;2022-08-19T00:09:23;2.43;;;2.27;;
11887;SDS011;6003;42.756;23.130;2022-08-19T00:11:50;2.63;;;2.50;;
11887;SDS011;6003;42.756;23.130;2022-08-19T00:14:18;2.50;;;2.40;;
11887;SDS011;6003;42.756;23.130;2022-08-19T00:16:47;2.90;;;2.70;;
11887;SDS011;6003;42.756;23.130;2022-08-19T00:19:17;2.40;;;2.30;;
11887;SDS011;6003;42.756;23.130;2022-08-19T00:21:44;2.70;;;2.47;;
11887;SDS011;6003;42.756;23.130;2022-08-19T00:24:13;2.97;;;2.60;;
11887;SDS011;6003;42.756;23.130;2022-08-19T00:26:41;2.70;;;2.50;;
11887;SDS011;6003;42.756;23.130;2022-08-19T00:29:10;3.47;;;2.30;;
11887;SDS011;6003;42.756;23.130;2022-08-19T00:31:38;2.90;;;2.70;;
11887;SDS011;6003;42.756;23.130;2022-08-19T00:34:05;2.47;;;2.27;;
11887;SDS011;6003;42.756;23.130;2022-08-19T00:36:34;2.60;;;2.40;;
11887;SDS011;6003;42.756;23.130;2022-08-19T00:39:02;2.50;;;2.40;;
11887;SDS011;6003;42.756;23.130;2022-08-19T00:41:29;2.43;;;2.33;;
11887;SDS011;6003;42.756;23.130;2022-08-19T00:43:57;2.30;;;2.20;;
11887;SDS011;6003;42.756;23.130;2022-08-19T00:46:26;2.77;;;2.47;;
11887;SDS011;6003;42.756;23.130;2022-08-19T00:48:54;2.33;;;2.23;;
11887;SDS011;6003;42.756;23.130;2022-08-19T00:51:22;2.80;;;2.60;;
11887;SDS011;6003;42.756;23.130;2022-08-19T00:53:53;3.30;;;3.07;;
11887;SDS011;6003;42.756;23.130;2022-08-19T00:56:21;2.73;;;2.57;;
11887;SDS011;6003;42.756;23.130;2022-08-19T00:58:49;2.33;;;2.23;;
11887;SDS011;6003;42.756;23.130;2022-08-19T01:01:16;3.03;;;2.83;;
11887;SDS011;6003;42.756;23.130;2022-08-19T01:03:43;2.43;;;2.33;;
11887;SDS011;6003;42.756;23.130;2022-08-19T01:06:10;3.10;;;2.90;;
11887;SDS011;6003;42.756;23.130;2022-08-19T01:08:37;2.87;;;2.70;;
11887;SDS011;6003;42.756;23.130;2022-08-19T01:11:05;2.93;;;2.73;;
11887;SDS011;6003;42.756;23.130;2022-08-19T01:13:33;2.70;;;2.60;;
11887;SDS011;6003;42.756;23.130;2022-08-19T01:16:03;3.07;;;2.73;;
11887;SDS011;6003;42.756;23.130;2022-08-19T01:18:35;2.87;;;2.67;;
11887;SDS011;6003;42.756;23.130;2022-08-19T01:21:08;3.10;;;2.90;;
11887;SDS011;6003;42.756;23.130;2022-08-19T01:23:42;2.90;;;2.70;;
11887;SDS011;6003;42.756;23.130;2022-08-19T01:26:11;2.67;;;2.47;;
11887;SDS011;6003;42.756;23.130;2022-08-19T01:28:42;2.77;;;2.57;;
11887;SDS011;6003;42.756;23.130;2022-08-19T01:31:12;2.53;;;2.43;;
11887;SDS011;6003;42.756;23.130;2022-08-19T01:33:41;3.00;;;2.80;;
11887;SDS011;6003;42.756;23.130;2022-08-19T01:36:10;2.30;;;2.20;;
11887;SDS011;6003;42.756;23.130;2022-08-19T01:38:39;2.40;;;2.20;;
11887;SDS011;6003;42.756;23.130;2022-08-19T01:41:10;2.97;;;2.80;;
11887;SDS011;6003;42.756;23.130;2022-08-19T01:43:38;2.37;;;2.27;;
11887;SDS011;6003;42.756;23.130;2022-08-19T01:46:05;2.47;;;2.37;;
11887;SDS011;6003;42.756;23.130;2022-08-19T01:48:33;2.40;;;2.27;;
11887;SDS011;6003;42.756;23.130;2022-08-19T01:51:01;2.63;;;2.43;;
11887;SDS011;6003;42.756;23.130;2022-08-19T01:53:29;2.70;;;2.60;;
11887;SDS011;6003;42.756;23.130;2022-08-19T01:55:57;2.80;;;2.60;;
11887;SDS011;6003;42.756;23.130;2022-08-19T01:58:26;2.60;;;2.50;;
11887;SDS011;6003;42.756;23.130;2022-08-19T02:00:56;3.63;;;2.83;;
11887;SDS011;6003;42.756;23.130;2022-08-19T02:03:24;2.77;;;2.57;;
11887;SDS011;6003;42.756;23.130;2022-08-19T02:05:53;2.93;;;2.73;;
11887;SDS011;6003;42.756;23.130;2022-08-19T02:08:21;2.90;;;2.70;;
11887;SDS011;6003;42.756;23.130;2022-08-19T02:10:49;2.40;;;2.30;;
11887;SDS011;6003;42.756;23.130;2022-08-19T02:13:16;2.57;;;2.37;;
11887;SDS011;6003;42.756;23.130;2022-08-19T02:15:45;2.40;;;2.30;;
11887;SDS011;6003;42.756;23.130;2022-08-19T02:18:12;2.10;;;2.00;;
11887;SDS011;6003;42.756;23.130;2022-08-19T02:20:40;2.50;;;2.40;;
11887;SDS011;6003;42.756;23.130;2022-08-19T02:23:08;2.30;;;2.20;;
11887;SDS011;6003;42.756;23.130;2022-08-19T02:25:37;2.60;;;2.40;;
11887;SDS011;6003;42.756;23.130;2022-08-19T02:28:04;3.00;;;2.80;;
11887;SDS011;6003;42.756;23.130;2022-08-19T02:30:32;2.63;;;2.43;;
11887;SDS011;6003;42.756;23.130;2022-08-19T02:33:00;2.30;;;2.20;;
11887;SDS011;6003;42.756;23.130;2022-08-19T02:35:27;2.53;;;2.33;;
11887;SDS011;6003;42.756;23.130;2022-08-19T02:37:54;2.30;;;2.20;;
11887;SDS011;6003;42.756;23.130;2022-08-19T02:40:38;2.50;;;2.40;;
11887;SDS011;6003;42.756;23.130;2022-08-19T02:43:06;2.40;;;2.30;;
11887;SDS011;6003;42.756;23.130;2022-08-19T02:45:35;3.07;;;2.87;;
11887;SDS011;6003;42.756;23.130;2022-08-19T02:48:05;2.33;;;2.23;;
11887;SDS011;6003;42.756;23.130;2022-08-19T02:50:32;2.77;;;2.60;;
11887;SDS011;6003;42.756;23.130;2022-08-19T02:53:00;2.67;;;2.57;;
11887;SDS011;6003;42.756;23.130;2022-08-19T02:55:26;2.80;;;2.60;;
11887;SDS011;6003;42.756;23.130;2022-08-19T02:57:53;2.60;;;2.50;;
11887;SDS011;6003;42.756;23.130;2022-08-19T03:00:22;2.43;;;2.23;;
11887;SDS011;6003;42.756;23.130;2022-08-19T03:02:50;3.43;;;2.80;;
11887;SDS011;6003;42.756;23.130;2022-08-19T03:05:18;2.80;;;2.60;;
11887;SDS011;6003;42.756;23.130;2022-08-19T03:07:45;2.73;;;2.57;;
11887;SDS011;6003;42.756;23.130;2022-08-19T03:10:12;2.97;;;2.77;;
11887;SDS011;6003;42.756;23.130;2022-08-19T03:12:39;3.23;;;2.83;;
11887;SDS011;6003;42.756;23.130;2022-08-19T03:15:07;3.20;;;2.97;;
11887;SDS011;6003;42.756;23.130;2022-08-19T03:17:35;3.27;;;3.03;;
11887;SDS011;6003;42.756;23.130;2022-08-19T03:20:03;2.70;;;2.53;;
11887;SDS011;6003;42.756;23.130;2022-08-19T03:22:32;2.80;;;2.60;;
11887;SDS011;6003;42.756;23.130;2022-08-19T03:24:59;2.97;;;2.73;;
11887;SDS011;6003;42.756;23.130;2022-08-19T03:27:26;3.13;;;2.93;;
11887;SDS011;6003;42.756;23.130;2022-08-19T03:29:54;2.57;;;2.37;;
11887;SDS011;6003;42.756;23.130;2022-08-19T03:32:21;2.70;;;2.50;;
11887;SDS011;6003;42.756;23.130;2022-08-19T03:34:48;2.57;;;2.47;;
11887;SDS011;6003;42.756;23.130;2022-08-19T03:37:16;3.27;;;2.97;;
11887;SDS011;6003;42.756;23.130;2022-08-19T03:39:44;2.90;;;2.70;;
11887;SDS011;6003;42.756;23.130;2022-08-19T03:42:11;3.00;;;2.80;;
11887;SDS011;6003;42.756;23.130;2022-08-19T03:44:38;3.33;;;3.03;;
11887;SDS011;6003;42.756;23.130;2022-08-19T03:50:10;2.83;;;2.63;;
11887;SDS011;6003;42.756;23.130;2022-08-19T03:52:37;3.30;;;3.07;;
11887;SDS011;6003;42.756;23.130;2022-08-19T03:55:06;3.50;;;2.67;;
11887;SDS011;6003;42.756;23.130;2022-08-19T03:57:34;2.80;;;2.60;;
11887;SDS011;6003;42.756;23.130;2022-08-19T04:00:01;2.67;;;2.57;;
11887;SDS011;6003;42.756;23.130;2022-08-19T04:02:31;2.83;;;2.63;;
11887;SDS011;6003;42.756;23.130;2022-08-19T04:04:57;3.03;;;2.40;;
11887;SDS011;6003;42.756;23.130;2022-08-19T04:07:24;3.13;;;2.90;;
11887;SDS011;6003;42.756;23.130;2022-08-19T04:09:51;3.20;;;2.90;;
11887;SDS011;6003;42.756;23.130;2022-08-19T04:12:20;2.97;;;2.77;;
11887;SDS011;6003;42.756;23.130;2022-08-19T04:14:46;3.27;;;2.97;;
11887;SDS011;6003;42.756;23.130;2022-08-19T04:17:13;2.90;;;2.73;;
11887;SDS011;6003;42.756;23.130;2022-08-19T04:19:40;2.83;;;2.63;;
11887;SDS011;6003;42.756;23.130;2022-08-19T04:22:08;3.13;;;2.93;;
11887;SDS011;6003;42.756;23.130;2022-08-19T04:24:36;3.20;;;2.90;;
11887;SDS011;6003;42.756;23.130;2022-08-19T04:27:03;3.00;;;2.80;;
11887;SDS011;6003;42.756;23.130;2022-08-19T04:29:32;3.17;;;2.97;;
11887;SDS011;6003;42.756;23.130;2022-08-19T04:31:59;3.10;;;2.90;;
11887;SDS011;6003;42.756;23.130;2022-08-19T04:34:28;2.90;;;2.70;;
11887;SDS011;6003;42.756;23.130;2022-08-19T04:37:05;3.57;;;3.27;;
11887;SDS011;6003;42.756;23.130;2022-08-19T04:39:37;3.50;;;3.20;;
11887;SDS011;6003;42.756;23.130;2022-08-19T04:42:21;7.10;;;3.00;;
11887;SDS011;6003;42.756;23.130;2022-08-19T04:45:10;3.00;;;2.80;;
11887;SDS011;6003;42.756;23.130;2022-08-19T04:47:39;3.10;;;2.87;;
11887;SDS011;6003;42.756;23.130;2022-08-19T04:50:07;3.97;;;2.73;;
11887;SDS011;6003;42.756;23.130;2022-08-19T04:52:36;5.27;;;2.63;;
11887;SDS011;6003;42.756;23.130;2022-08-19T04:55:07;2.63;;;2.43;;
11887;SDS011;6003;42.756;23.130;2022-08-19T04:57:35;2.90;;;2.70;;
11887;SDS011;6003;42.756;23.130;2022-08-19T05:00:06;2.60;;;2.50;;
11887;SDS011;6003;42.756;23.130;2022-08-19T05:02:36;2.90;;;2.70;;
11887;SDS011;6003;42.756;23.130;2022-08-19T05:05:04;5.75;;;2.78;;
11887;SDS011;6003;42.756;23.130;2022-08-19T05:07:31;2.77;;;2.67;;
11887;SDS011;6003;42.756;23.130;2022-08-19T05:09:59;3.15;;;2.95;;
11887;SDS011;6003;42.756;23.130;2022-08-19T05:12:26;3.23;;;3.03;;
11887;SDS011;6003;42.756;23.130;2022-08-19T05:14:56;3.42;;;3.22;;
11887;SDS011;6003;42.756;23.130;2022-08-19T05:17:26;2.92;;;2.72;;
11887;SDS011;6003;42.756;23.130;2022-08-19T05:19:53;3.08;;;2.85;;
11887;SDS011;6003;42.756;23.130;2022-08-19T05:22:38;2.95;;;2.78;;
11887;SDS011;6003;42.756;23.130;2022-08-19T05:25:06;2.97;;;2.77;;
11887;SDS011;6003;42.756;23.130;2022-08-19T05:27:52;2.88;;;2.67;;
11887;SDS011;6003;42.756;23.130;2022-08-19T05:30:19;3.65;;;2.78;;
11887;SDS011;6003;42.756;23.130;2022-08-19T05:32:47;3.35;;;3.10;;
11887;SDS011;6003;42.756;23.130;2022-08-19T05:35:14;3.10;;;2.90;;
11887;SDS011;6003;42.756;23.130;2022-08-19T05:37:44;3.25;;;3.05;;
11887;SDS011;6003;42.756;23.130;2022-08-19T05:40:11;2.95;;;2.78;;
11887;SDS011;6003;42.756;23.130;2022-08-19T05:42:38;2.83;;;2.63;;
11887;SDS011;6003;42.756;23.130;2022-08-19T05:45:06;2.80;;;2.47;;
11887;SDS011;6003;42.756;23.130;2022-08-19T05:47:34;2.90;;;2.70;;
11887;SDS011;6003;42.756;23.130;2022-08-19T05:50:04;3.05;;;2.85;;
11887;SDS011;6003;42.756;23.130;2022-08-19T05:52:31;2.65;;;2.45;;
11887;SDS011;6003;42.756;23.130;2022-08-19T05:54:58;2.45;;;2.35;;
11887;SDS011;6003;42.756;23.130;2022-08-19T05:57:25;2.70;;;2.60;;
11887;SDS011;6003;42.756;23.130;2022-08-19T05:59:53;2.70;;;2.50;;
11887;SDS011;6003;42.756;23.130;2022-08-19T06:02:21;2.75;;;2.65;;
11887;SDS011;6003;42.756;23.130;2022-08-19T06:04:48;2.42;;;2.33;;
11887;SDS011;6003;42.756;23.130;2022-08-19T06:07:17;2.60;;;2.50;;
11887;SDS011;6003;42.756;23.130;2022-08-19T06:09:44;2.60;;;2.50;;
11887;SDS011;6003;42.756;23.130;2022-08-19T06:12:11;3.17;;;2.97;;
11887;SDS011;6003;42.756;23.130;2022-08-19T06:14:38;2.92;;;2.72;;
11887;SDS011;6003;42.756;23.130;2022-08-19T06:17:06;2.95;;;2.75;;
11887;SDS011;6003;42.756;23.130;2022-08-19T06:19:33;2.97;;;2.78;;
11887;SDS011;6003;42.756;23.130;2022-08-19T06:22:01;2.75;;;2.65;;
11887;SDS011;6003;42.756;23.130;2022-08-19T06:24:31;3.60;;;3.10;;
11887;SDS011;6003;42.756;23.130;2022-08-19T06:26:58;2.97;;;2.83;;
11887;SDS011;6003;42.756;23.130;2022-08-19T06:29:28;3.63;;;3.22;;
11887;SDS011;6003;42.756;23.130;2022-08-19T06:31:57;3.88;;;3.58;;
11887;SDS011;6003;42.756;23.130;2022-08-19T06:34:26;3.55;;;3.35;;
11887;SDS011;6003;42.756;23.130;2022-08-19T06:36:55;3.67;;;3.38;;
11887;SDS011;6003;42.756;23.130;2022-08-19T06:39:23;3.95;;;3.58;;
11887;SDS011;6003;42.756;23.130;2022-08-19T06:41:54;3.60;;;3.30;;
11887;SDS011;6003;42.756;23.130;2022-08-19T06:44:24;3.80;;;3.50;;
11887;SDS011;6003;42.756;23.130;2022-08-19T06:46:53;3.60;;;3.30;;
11887;SDS011;6003;42.756;23.130;2022-08-19T06:49:21;3.30;;;3.10;;
11887;SDS011;6003;42.756;23.130;2022-08-19T06:51:50;3.75;;;3.53;;
11887;SDS011;6003;42.756;23.130;2022-08-19T06:54:18;3.53;;;3.22;;
11887;SDS011;6003;42.756;23.130;2022-08-19T06:56:46;3.95;;;3.67;;
11887;SDS011;6003;42.756;23.130;2022-08-19T06:59:15;4.20;;;3.65;;
11887;SDS011;6003;42.756;23.130;2022-08-19T07:01:44;4.03;;;3.72;;
11887;SDS011;6003;42.756;23.130;2022-08-19T07:04:12;3.58;;;3.28;;
11887;SDS011;6003;42.756;23.130;2022-08-19T07:06:42;3.72;;;3.42;;
11887;SDS011;6003;42.756;23.130;2022-08-19T07:09:10;3.47;;;3.17;;
11887;SDS011;6003;42.756;23.130;2022-08-19T07:11:41;3.15;;;2.95;;
11887;SDS011;6003;42.756;23.130;2022-08-19T07:14:10;3.85;;;3.25;;
11887;SDS011;6003;42.756;23.130;2022-08-19T07:16:40;3.80;;;3.45;;
11887;SDS011;6003;42.756;23.130;2022-08-19T07:19:07;3.80;;;3.50;;
11887;SDS011;6003;42.756;23.130;2022-08-19T07:21:34;3.60;;;3.30;;
11887;SDS011;6003;42.756;23.130;2022-08-19T07:24:03;3.50;;;3.28;;
11887;SDS011;6003;42.756;23.130;2022-08-19T07:26:31;3.40;;;3.20;;
11887;SDS011;6003;42.756;23.130;2022-08-19T07:28:59;3.63;;;3.40;;
11887;SDS011;6003;42.756;23.130;2022-08-19T07:31:27;4.03;;;3.65;;
11887;SDS011;6003;42.756;23.130;2022-08-19T07:33:56;3.30;;;3.10;;
11887;SDS011;6003;42.756;23.130;2022-08-19T07:36:25;3.67;;;3.47;;
11887;SDS011;6003;42.756;23.130;2022-08-19T07:38:58;3.85;;;3.55;;
11887;SDS011;6003;42.756;23.130;2022-08-19T07:41:27;3.58;;;3.28;;
11887;SDS011;6003;42.756;23.130;2022-08-19T07:43:56;3.83;;;3.63;;
11887;SDS011;6003;42.756;23.130;2022-08-19T07:46:23;3.60;;;3.40;;
11887;SDS011;6003;42.756;23.130;2022-08-19T07:48:52;3.60;;;3.40;;
11887;SDS011;6003;42.756;23.130;2022-08-19T07:51:21;3.65;;;3.35;;
11887;SDS011;6003;42.756;23.130;2022-08-19T07:53:48;3.75;;;3.55;;
11887;SDS011;6003;42.756;23.130;2022-08-19T07:56:16;3.20;;;3.00;;
11887;SDS011;6003;42.756;23.130;2022-08-19T07:58:45;3.28;;;3.08;;
11887;SDS011;6003;42.756;23.130;2022-08-19T08:01:16;3.58;;;3.28;;
11887;SDS011;6003;42.756;23.130;2022-08-19T08:03:46;3.58;;;3.38;;
11887;SDS011;6003;42.756;23.130;2022-08-19T08:06:35;3.40;;;3.20;;
11887;SDS011;6003;42.756;23.130;2022-08-19T08:09:22;3.20;;;3.00;;
11887;SDS011;6003;42.756;23.130;2022-08-19T08:11:51;3.25;;;3.08;;
11887;SDS011;6003;42.756;23.130;2022-08-19T08:14:21;3.30;;;3.10;;
11887;SDS011;6003;42.756;23.130;2022-08-19T08:16:50;3.50;;;3.30;;
11887;SDS011;6003;42.756;23.130;2022-08-19T08:19:18;3.55;;;3.35;;
11887;SDS011;6003;42.756;23.130;2022-08-19T08:21:48;3.40;;;3.20;;
11887;SDS011;6003;42.756;23.130;2022-08-19T08:24:16;3.20;;;3.00;;
11887;SDS011;6003;42.756;23.130;2022-08-19T08:26:45;3.17;;;3.00;;
11887;SDS011;6003;42.756;23.130;2022-08-19T08:29:12;3.78;;;3.53;;
11887;SDS011;6003;42.756;23.130;2022-08-19T08:31:40;3.05;;;2.85;;
11887;SDS011;6003;42.756;23.130;2022-08-19T08:34:10;3.53;;;3.22;;
11887;SDS011;6003;42.756;23.130;2022-08-19T08:36:38;3.03;;;2.83;;
11887;SDS011;6003;42.756;23.130;2022-08-19T08:39:08;3.13;;;2.92;;
11887;SDS011;6003;42.756;23.130;2022-08-19T08:41:37;2.60;;;2.40;;
11887;SDS011;6003;42.756;23.130;2022-08-19T08:44:13;2.33;;;2.22;;
11887;SDS011;6003;42.756;23.130;2022-08-19T08:46:45;2.88;;;2.67;;
11887;SDS011;6003;42.756;23.130;2022-08-19T08:49:20;2.30;;;2.20;;
11887;SDS011;6003;42.756;23.130;2022-08-19T08:51:57;2.35;;;2.15;;
11887;SDS011;6003;42.756;23.130;2022-08-19T08:54:34;2.55;;;2.45;;
11887;SDS011;6003;42.756;23.130;2022-08-19T08:57:14;2.60;;;2.50;;
11887;SDS011;6003;42.756;23.130;2022-08-19T08:59:47;2.13;;;2.03;;
11887;SDS011;6003;42.756;23.130;2022-08-19T09:02:17;2.90;;;2.70;;
11887;SDS011;6003;42.756;23.130;2022-08-19T09:04:44;2.40;;;2.30;;
11887;SDS011;6003;42.756;23.130;2022-08-19T09:07:15;2.60;;;2.28;;
11887;SDS011;6003;42.756;23.130;2022-08-19T09:09:54;2.35;;;2.25;;
11887;SDS011;6003;42.756;23.130;2022-08-19T09:12:31;2.63;;;2.42;;
11887;SDS011;6003;42.756;23.130;2022-08-19T09:15:06;2.85;;;2.40;;
11887;SDS011;6003;42.756;23.130;2022-08-19T09:17:35;2.40;;;2.30;;
11887;SDS011;6003;42.756;23.130;2022-08-19T09:20:04;2.17;;;2.08;;
11887;SDS011;6003;42.756;23.130;2022-08-19T09:22:39;2.15;;;2.05;;
11887;SDS011;6003;42.756;23.130;2022-08-19T09:25:11;2.53;;;2.30;;
11887;SDS011;6003;42.756;23.130;2022-08-19T09:27:40;2.40;;;2.15;;
11887;SDS011;6003;42.756;23.130;2022-08-19T09:30:10;2.30;;;2.20;;
11887;SDS011;6003;42.756;23.130;2022-08-19T09:32:40;2.40;;;2.30;;
11887;SDS011;6003;42.756;23.130;2022-08-19T09:35:08;2.20;;;2.10;;
11887;SDS011;6003;42.756;23.130;2022-08-19T09:37:35;2.30;;;2.20;;
11887;SDS011;6003;42.756;23.130;2022-08-19T09:40:02;2.25;;;2.15;;
11887;SDS011;6003;42.756;23.130;2022-08-19T09:42:32;2.40;;;2.30;;
11887;SDS011;6003;42.756;23.130;2022-08-19T09:45:00;2.50;;;2.40;;
11887;SDS011;6003;42.756;23.130;2022-08-19T09:47:26;2.40;;;2.30;;
11887;SDS011;6003;42.756;23.130;2022-08-19T09:49:53;2.60;;;2.50;;
11887;SDS011;6003;42.756;23.130;2022-08-19T09:52:20;2.30;;;2.20;;
11887;SDS011;6003;42.756;23.130;2022-08-19T09:54:47;2.30;;;2.20;;
11887;SDS011;6003;42.756;23.130;2022-08-19T09:57:17;2.45;;;2.03;;
11887;SDS011;6003;42.756;23.130;2022-08-19T09:59:45;2.35;;;2.25;;
11887;SDS011;6003;42.756;23.130;2022-08-19T10:02:13;2.10;;;2.00;;
11887;SDS011;6003;42.756;23.130;2022-08-19T10:04:40;1.92;;;1.80;;
11887;SDS011;6003;42.756;23.130;2022-08-19T10:07:35;2.15;;;2.05;;
11887;SDS011;6003;42.756;23.130;2022-08-19T10:10:04;2.10;;;2.00;;
11887;SDS011;6003;42.756;23.130;2022-08-19T10:12:32;2.33;;;2.22;;
11887;SDS011;6003;42.756;23.130;2022-08-19T10:15:01;2.15;;;2.05;;
11887;SDS011;6003;42.756;23.130;2022-08-19T10:17:27;2.25;;;2.15;;
11887;SDS011;6003;42.756;23.130;2022-08-19T10:19:55;2.25;;;2.15;;
11887;SDS011;6003;42.756;23.130;2022-08-19T10:22:21;1.98;;;1.88;;
11887;SDS011;6003;42.756;23.130;2022-08-19T10:24:49;2.75;;;2.55;;
11887;SDS011;6003;42.756;23.130;2022-08-19T10:30:15;3.45;;;2.78;;
11887;SDS011;6003;42.756;23.130;2022-08-19T10:32:42;2.40;;;2.30;;
11887;SDS011;6003;42.756;23.130;2022-08-19T10:35:11;2.58;;;2.38;;
11887;SDS011;6003;42.756;23.130;2022-08-19T10:37:38;2.33;;;2.13;;
11887;SDS011;6003;42.756;23.130;2022-08-19T10:40:06;2.35;;;2.25;;
11887;SDS011;6003;42.756;23.130;2022-08-19T10:42:36;2.25;;;2.15;;
11887;SDS011;6003;42.756;23.130;2022-08-19T10:45:04;3.72;;;2.53;;
11887;SDS011;6003;42.756;23.130;2022-08-19T10:47:33;2.25;;;2.15;;
11887;SDS011;6003;42.756;23.130;2022-08-19T10:50:00;2.00;;;1.90;;
11887;SDS011;6003;42.756;23.130;2022-08-19T10:52:45;3.15;;;2.20;;
11887;SDS011;6003;42.756;23.130;2022-08-19T10:55:14;2.53;;;2.40;;
11887;SDS011;6003;42.756;23.130;2022-08-19T11:00:56;2.50;;;2.40;;
11887;SDS011;6003;42.756;23.130;2022-08-19T11:03:26;2.38;;;2.20;;
11887;SDS011;6003;42.756;23.130;2022-08-19T11:05:58;2.40;;;2.30;;
11887;SDS011;6003;42.756;23.130;2022-08-19T11:08:25;2.28;;;2.17;;
11887;SDS011;6003;42.756;23.130;2022-08-19T11:10:53;2.25;;;2.15;;
11887;SDS011;6003;42.756;23.130;2022-08-19T11:13:21;2.50;;;2.40;;
11887;SDS011;6003;42.756;23.130;2022-08-19T11:15:55;2.70;;;2.55;;
11887;SDS011;6003;42.756;23.130;2022-08-19T11:18:23;2.35;;;2.25;;
11887;SDS011;6003;42.756;23.130;2022-08-19T11:20:52;4.22;;;2.28;;
11887;SDS011;6003;42.756;23.130;2022-08-19T11:23:19;2.50;;;2.40;;
11887;SDS011;6003;42.756;23.130;2022-08-19T11:25:46;2.22;;;2.10;;
11887;SDS011;6003;42.756;23.130;2022-08-19T11:31:29;2.80;;;2.60;;
11887;SDS011;6003;42.756;23.130;2022-08-19T11:33:58;2.70;;;2.47;;
11887;SDS011;6003;42.756;23.130;2022-08-19T11:36:28;2.92;;;2.72;;
11887;SDS011;6003;42.756;23.130;2022-08-19T11:38:56;2.40;;;2.22;;
11887;SDS011;6003;42.756;23.130;2022-08-19T11:41:23;2.58;;;2.47;;
11887;SDS011;6003;42.756;23.130;2022-08-19T11:43:51;2.38;;;2.25;;
11887;SDS011;6003;42.756;23.130;2022-08-19T11:46:20;2.13;;;2.03;;
11887;SDS011;6003;42.756;23.130;2022-08-19T11:48:48;2.40;;;2.30;;
11887;SDS011;6003;42.756;23.130;2022-08-19T11:51:17;2.60;;;2.40;;
11887;SDS011;6003;42.756;23.130;2022-08-19T11:53:47;3.38;;;2.60;;
11887;SDS011;6003;42.756;23.130;2022-08-19T11:56:14;2.95;;;2.63;;
11887;SDS011;6003;42.756;23.130;2022-08-19T11:58:41;2.88;;;2.67;;
11887;SDS011;6003;42.756;23.130;2022-08-19T12:01:08;3.78;;;2.20;;
11887;SDS011;6003;42.756;23.130;2022-08-19T12:03:37;2.45;;;2.30;;
11887;SDS011;6003;42.756;23.130;2022-08-19T12:06:05;2.35;;;2.25;;
11887;SDS011;6003;42.756;23.130;2022-08-19T12:08:32;2.25;;;2.15;;
11887;SDS011;6003;42.756;23.130;2022-08-19T12:11:00;2.20;;;2.10;;
11887;SDS011;6003;42.756;23.130;2022-08-19T12:13:27;2.67;;;2.47;;
11887;SDS011;6003;42.756;23.130;2022-08-19T12:15:55;2.85;;;2.65;;
11887;SDS011;6003;42.756;23.130;2022-08-19T12:18:23;2.33;;;2.22;;
11887;SDS011;6003;42.756;23.130;2022-08-19T12:20:51;2.55;;;2.35;;
11887;SDS011;6003;42.756;23.130;2022-08-19T12:23:20;2.83;;;2.33;;
11887;SDS011;6003;42.756;23.130;2022-08-19T12:25:48;2.17;;;2.08;;
11887;SDS011;6003;42.756;23.130;2022-08-19T12:28:18;2.67;;;2.58;;
11887;SDS011;6003;42.756;23.130;2022-08-19T12:30:46;2.45;;;2.30;;
11887;SDS011;6003;42.756;23.130;2022-08-19T12:33:13;2.50;;;2.30;;
11887;SDS011;6003;42.756;23.130;2022-08-19T12:35:40;5.50;;;5.00;;
11887;SDS011;6003;42.756;23.130;2022-08-19T12:38:09;2.38;;;2.28;;
11887;SDS011;6003;42.756;23.130;2022-08-19T12:40:36;2.78;;;2.25;;
11887;SDS011;6003;42.756;23.130;2022-08-19T12:43:04;2.83;;;2.63;;
11887;SDS011;6003;42.756;23.130;2022-08-19T12:45:33;3.72;;;2.78;;
11887;SDS011;6003;42.756;23.130;2022-08-19T12:48:00;2.33;;;2.17;;
11887;SDS011;6003;42.756;23.130;2022-08-19T12:50:28;2.15;;;2.05;;
11887;SDS011;6003;42.756;23.130;2022-08-19T12:52:55;2.25;;;2.15;;
11887;SDS011;6003;42.756;23.130;2022-08-19T12:55:23;2.42;;;2.22;;
11887;SDS011;6003;42.756;23.130;2022-08-19T12:57:50;2.20;;;2.00;;
11887;SDS011;6003;42.756;23.130;2022-08-19T13:00:18;2.95;;;2.40;;
11887;SDS011;6003;42.756;23.130;2022-08-19T13:02:49;2.67;;;2.47;;
11887;SDS011;6003;42.756;23.130;2022-08-19T13:05:19;2.60;;;2.40;;
11887;SDS011;6003;42.756;23.130;2022-08-19T13:07:49;2.28;;;2.17;;
11887;SDS011;6003;42.756;23.130;2022-08-19T13:10:18;4.38;;;2.47;;
11887;SDS011;6003;42.756;23.130;2022-08-19T13:12:47;2.60;;;2.38;;
11887;SDS011;6003;42.756;23.130;2022-08-19T13:15:16;2.28;;;2.17;;
11887;SDS011;6003;42.756;23.130;2022-08-19T13:17:52;2.58;;;2.40;;
11887;SDS011;6003;42.756;23.130;2022-08-19T13:20:20;2.28;;;2.17;;
11887;SDS011;6003;42.756;23.130;2022-08-19T13:22:48;2.50;;;2.40;;
11887;SDS011;6003;42.756;23.130;2022-08-19T13:25:15;2.45;;;2.35;;
11887;SDS011;6003;42.756;23.130;2022-08-19T13:27:44;2.45;;;2.35;;
11887;SDS011;6003;42.756;23.130;2022-08-19T13:30:12;4.68;;;2.33;;
11887;SDS011;6003;42.756;23.130;2022-08-19T13:32:59;2.33;;;2.22;;
11887;SDS011;6003;42.756;23.130;2022-08-19T13:35:40;2.45;;;2.33;;
11887;SDS011;6003;42.756;23.130;2022-08-19T13:38:09;2.60;;;2.47;;
11887;SDS011;6003;42.756;23.130;2022-08-19T13:40:36;2.58;;;2.47;;
11887;SDS011;6003;42.756;23.130;2022-08-19T13:43:04;2.22;;;2.13;;
11887;SDS011;6003;42.756;23.130;2022-08-19T13:45:32;2.45;;;2.30;;
11887;SDS011;6003;42.756;23.130;2022-08-19T13:48:02;2.47;;;2.28;;
11887;SDS011;6003;42.756;23.130;2022-08-19T13:50:34;2.50;;;2.30;;
11887;SDS011;6003;42.756;23.130;2022-08-19T13:53:06;2.42;;;2.33;;
11887;SDS011;6003;42.756;23.130;2022-08-19T13:55:34;2.30;;;2.20;;
11887;SDS011;6003;42.756;23.130;2022-08-19T13:58:03;2.53;;;2.42;;
11887;SDS011;6003;42.756;23.130;2022-08-19T14:00:31;2.80;;;2.60;;
11887;SDS011;6003;42.756;23.130;2022-08-19T14:02:59;3.35;;;2.42;;
11887;SDS011;6003;42.756;23.130;2022-08-19T14:05:28;2.40;;;2.30;;
11887;SDS011;6003;42.756;23.130;2022-08-19T14:07:57;2.55;;;2.35;;
11887;SDS011;6003;42.756;23.130;2022-08-19T14:10:24;2.60;;;2.40;;
11887;SDS011;6003;42.756;23.130;2022-08-19T14:12:53;2.70;;;2.50;;
11887;SDS011;6003;42.756;23.130;2022-08-19T14:15:23;2.55;;;2.42;;
11887;SDS011;6003;42.756;23.130;2022-08-19T14:17:50;2.45;;;2.35;;
11887;SDS011;6003;42.756;23.130;2022-08-19T14:20:17;2.40;;;2.30;;
11887;SDS011;6003;42.756;23.130;2022-08-19T14:22:46;2.30;;;2.20;;
11887;SDS011;6003;42.756;23.130;2022-08-19T14:25:15;2.50;;;2.38;;
11887;SDS011;6003;42.756;23.130;2022-08-19T14:27:44;2.40;;;2.30;;
11887;SDS011;6003;42.756;23.130;2022-08-19T14:30:13;3.60;;;2.67;;
11887;SDS011;6003;42.756;23.130;2022-08-19T14:32:43;2.60;;;2.40;;
11887;SDS011;6003;42.756;23.130;2022-08-19T14:35:10;2.63;;;2.42;;
11887;SDS011;6003;42.756;23.130;2022-08-19T14:37:39;2.50;;;2.40;;
11887;SDS011;6003;42.756;23.130;2022-08-19T14:40:09;2.90;;;2.70;;
11887;SDS011;6003;42.756;23.130;2022-08-19T14:42:37;3.05;;;2.63;;
11887;SDS011;6003;42.756;23.130;2022-08-19T14:45:04;2.60;;;2.50;;
11887;SDS011;6003;42.756;23.130;2022-08-19T14:47:32;3.33;;;2.50;;
11887;SDS011;6003;42.756;23.130;2022-08-19T14:49:59;2.85;;;2.60;;
11887;SDS011;6003;42.756;23.130;2022-08-19T14:52:26;2.83;;;2.70;;
11887;SDS011;6003;42.756;23.130;2022-08-19T14:54:53;2.83;;;2.63;;
11887;SDS011;6003;42.756;23.130;2022-08-19T14:57:22;2.60;;;2.30;;
11887;SDS011;6003;42.756;23.130;2022-08-19T14:59:49;2.50;;;2.30;;
11887;SDS011;6003;42.756;23.130;2022-08-19T15:02:16;2.63;;;2.42;;
11887;SDS011;6003;42.756;23.130;2022-08-19T15:04:43;2.72;;;2.60;;
11887;SDS011;6003;42.756;23.130;2022-08-19T15:07:10;3.03;;;2.72;;
11887;SDS011;6003;42.756;23.130;2022-08-19T15:09:37;2.90;;;2.70;;
11887;SDS011;6003;42.756;23.130;2022-08-19T15:12:04;2.80;;;2.60;;